Rosendale, New York
Current Conditions -  °F | °C
As of 11:53 PM on Saturday 22 Nov 2014 (Local Time) from KPOU Reporting Station
Clear Clear  
Wind Chill: 37°   Ceiling: Unl
Heat Index: 43°   Visibility: 10mi
Dew Point: 18°   Wind: 10mph
Humidity: 37%   Direction: 230°SW
Pressure: 30.17"   Gusts: 18mph
Location:  41.84°N, 74.08°W
Report Text: KPOU 230453Z AUTO 23009G16KT 10SM CLR 06/M08 A3017 RMK AO2 SLP213 T00611078 400611056 TSNO
Loading
Personal Weather Stations






























Interactive Weather Map New forecast layout! Learn more

10-Day Weather Forecast

Advertisements
Track Severe Weather on mobile